createdAt,value
2024-01-16T00:01:21.450Z,83.63
2024-01-16T00:03:49.237Z,83.58
2024-01-16T00:06:17.127Z,83.49
2024-01-16T00:08:44.880Z,83.42
2024-01-16T00:11:12.925Z,83.39
2024-01-16T00:13:40.627Z,83.30
2024-01-16T00:16:08.343Z,83.43
2024-01-16T00:18:36.273Z,83.60
2024-01-16T00:21:04.020Z,83.61
2024-01-16T00:23:34.511Z,83.67
2024-01-16T00:26:03.525Z,83.70
2024-01-16T00:28:31.717Z,83.67
2024-01-16T00:30:59.441Z,83.52
2024-01-16T00:33:28.819Z,83.33
2024-01-16T00:35:56.549Z,83.20
2024-01-16T00:38:25.110Z,83.06
2024-01-16T00:40:53.227Z,82.97
2024-01-16T00:43:21.001Z,82.78
2024-01-16T00:45:49.414Z,82.68
2024-01-16T00:48:17.482Z,82.70
2024-01-16T00:50:47.427Z,82.83
2024-01-16T00:53:15.266Z,82.91
2024-01-16T00:55:43.169Z,82.94
2024-01-16T00:58:10.847Z,82.98
2024-01-16T01:00:42.118Z,82.84
2024-01-16T01:03:09.994Z,82.77
2024-01-16T01:05:37.972Z,82.54
2024-01-16T01:08:06.123Z,82.43
2024-01-16T01:10:33.893Z,82.25
2024-01-16T01:13:02.159Z,82.10
2024-01-16T01:15:29.897Z,81.94
2024-01-16T01:17:57.748Z,81.64
2024-01-16T01:20:25.769Z,81.57
2024-01-16T01:22:53.834Z,81.71
2024-01-16T01:25:21.505Z,81.82
2024-01-16T01:27:50.154Z,81.81
2024-01-16T01:30:17.850Z,81.80
2024-01-16T01:32:47.737Z,81.86
2024-01-16T01:35:16.037Z,82.05
2024-01-16T01:37:43.907Z,81.98
2024-01-16T01:40:13.783Z,81.86
2024-01-16T01:42:41.439Z,81.72
2024-01-16T01:45:09.285Z,81.75
2024-01-16T01:47:37.006Z,81.93
2024-01-16T01:50:05.073Z,81.77
2024-01-16T01:52:32.694Z,81.46
2024-01-16T01:55:02.304Z,81.07
2024-01-16T01:57:30.728Z,80.81
2024-01-16T01:59:58.488Z,80.13
2024-01-16T02:02:26.256Z,79.56
2024-01-16T02:04:54.221Z,79.25
2024-01-16T02:07:22.350Z,78.97
2024-01-16T02:09:50.515Z,78.67
2024-01-16T02:12:18.229Z,78.33
2024-01-16T02:14:45.935Z,78.25
2024-01-16T02:17:13.784Z,78.52
2024-01-16T02:19:41.622Z,78.81
2024-01-16T02:22:12.107Z,79.16
2024-01-16T02:24:39.830Z,79.48
2024-01-16T02:27:07.545Z,79.83
2024-01-16T02:29:38.501Z,80.07
2024-01-16T02:32:06.903Z,80.38
2024-01-16T02:34:35.748Z,80.94
2024-01-16T02:37:03.393Z,81.38
2024-01-16T02:39:32.029Z,81.60
2024-01-16T02:41:59.691Z,81.61
2024-01-16T02:44:27.708Z,81.61
2024-01-16T02:46:56.050Z,81.57
2024-01-16T02:49:23.940Z,81.47
2024-01-16T02:51:51.632Z,81.24
2024-01-16T02:54:19.502Z,81.02
2024-01-16T02:56:47.297Z,80.62
2024-01-16T02:59:15.166Z,80.23
2024-01-16T03:01:43.285Z,79.65
2024-01-16T03:04:10.977Z,79.11
2024-01-16T03:06:38.743Z,78.75
2024-01-16T03:09:08.102Z,78.54
2024-01-16T03:11:38.853Z,78.42
2024-01-16T03:14:07.059Z,78.47
2024-01-16T03:16:37.004Z,79.19
2024-01-16T03:19:04.632Z,80.00
2024-01-16T03:21:32.504Z,80.59
2024-01-16T03:24:00.831Z,80.75
2024-01-16T03:26:28.606Z,81.04
2024-01-16T03:28:56.245Z,81.43
2024-01-16T03:31:24.974Z,81.63
2024-01-16T03:33:52.709Z,81.80
2024-01-16T03:36:20.439Z,81.90
2024-01-16T03:38:48.177Z,82.12
2024-01-16T03:41:16.085Z,82.37
2024-01-16T03:43:44.179Z,82.45
2024-01-16T03:46:12.109Z,82.42
2024-01-16T03:48:40.614Z,82.39
2024-01-16T03:51:08.444Z,82.42
2024-01-16T03:53:36.222Z,82.61
2024-01-16T03:56:04.022Z,82.72
2024-01-16T03:58:31.669Z,82.94
2024-01-16T04:00:59.795Z,83.18
2024-01-16T04:03:27.672Z,83.34
2024-01-16T04:05:55.504Z,83.35
2024-01-16T04:08:23.297Z,83.42
2024-01-16T04:10:51.134Z,83.46
2024-01-16T04:13:19.194Z,83.53
2024-01-16T04:15:47.188Z,83.43
2024-01-16T04:18:14.970Z,83.39
2024-01-16T04:20:42.716Z,83.41
2024-01-16T04:23:10.709Z,83.36
2024-01-16T04:25:38.573Z,83.24
2024-01-16T04:28:06.255Z,83.00
2024-01-16T04:30:33.893Z,82.76
2024-01-16T04:33:02.260Z,82.76
2024-01-16T04:35:30.362Z,82.98
2024-01-16T04:37:58.107Z,82.96
2024-01-16T04:40:25.710Z,82.81
2024-01-16T04:42:53.368Z,82.54
2024-01-16T04:45:21.048Z,82.18
2024-01-16T04:47:48.767Z,81.99
2024-01-16T04:50:16.579Z,82.22
2024-01-16T04:52:44.571Z,82.51
2024-01-16T04:55:12.250Z,82.87
2024-01-16T04:57:40.033Z,83.29
2024-01-16T05:00:08.375Z,83.51
2024-01-16T05:02:36.494Z,83.86
2024-01-16T05:05:04.833Z,84.26
2024-01-16T05:07:32.836Z,84.70
2024-01-16T05:10:00.782Z,84.81
2024-01-16T05:12:28.627Z,84.80
2024-01-16T05:14:56.425Z,84.78
2024-01-16T05:17:25.013Z,84.66
2024-01-16T05:19:52.794Z,84.49
2024-01-16T05:22:20.479Z,84.31
2024-01-16T05:24:48.144Z,84.13
2024-01-16T05:27:16.021Z,83.96
2024-01-16T05:29:44.833Z,83.89
2024-01-16T05:32:13.241Z,83.75
2024-01-16T05:34:41.169Z,83.64
2024-01-16T05:37:08.940Z,83.74
2024-01-16T05:39:37.873Z,83.90
2024-01-16T05:42:05.800Z,83.78
2024-01-16T05:44:33.520Z,83.66
2024-01-16T05:47:01.195Z,83.69
2024-01-16T05:49:29.029Z,83.75
2024-01-16T05:51:56.656Z,83.70
2024-01-16T05:54:24.290Z,83.72
2024-01-16T05:56:51.993Z,83.84
2024-01-16T05:59:19.950Z,84.18
2024-01-16T06:01:47.595Z,84.13
2024-01-16T06:04:15.189Z,83.80
2024-01-16T06:06:46.952Z,83.00
2024-01-16T06:09:15.599Z,82.74
2024-01-16T06:11:43.815Z,82.77
2024-01-16T06:14:13.519Z,82.97
2024-01-16T06:16:41.236Z,83.24
2024-01-16T06:19:09.736Z,83.38
2024-01-16T06:21:37.609Z,83.43
2024-01-16T06:24:05.315Z,83.57
2024-01-16T06:26:32.972Z,83.63
2024-01-16T06:29:00.872Z,83.60
2024-01-16T06:31:28.571Z,83.59
2024-01-16T06:33:57.081Z,83.67
2024-01-16T06:36:25.022Z,83.94
2024-01-16T06:38:52.647Z,84.08
2024-01-16T06:41:20.538Z,84.34
2024-01-16T06:43:48.179Z,84.74
2024-01-16T06:46:15.868Z,84.05
2024-01-16T06:48:43.702Z,83.76
2024-01-16T06:51:15.098Z,83.69
2024-01-16T06:53:42.745Z,83.53
2024-01-16T06:56:11.019Z,83.53
2024-01-16T06:58:38.905Z,83.68
2024-01-16T07:01:06.521Z,83.92
2024-01-16T07:03:34.156Z,83.85
2024-01-16T07:06:02.334Z,83.81
2024-01-16T07:08:29.991Z,83.79
2024-01-16T07:10:57.791Z,83.83
2024-01-16T07:13:25.499Z,83.92
2024-01-16T07:15:53.191Z,84.15
2024-01-16T07:18:21.169Z,84.39
2024-01-16T07:20:49.013Z,84.68
2024-01-16T07:23:16.872Z,84.73
2024-01-16T07:25:44.458Z,84.85
2024-01-16T07:28:12.234Z,84.87
2024-01-16T07:30:41.097Z,84.81
2024-01-16T07:33:08.872Z,84.70
2024-01-16T07:35:36.670Z,84.54
2024-01-16T07:38:05.886Z,83.58
2024-01-16T07:40:33.666Z,82.85
2024-01-16T07:43:01.324Z,82.11
2024-01-16T07:45:29.051Z,81.82
2024-01-16T07:47:56.766Z,83.40
2024-01-16T07:50:24.646Z,81.21
2024-01-16T07:52:52.278Z,80.76
2024-01-16T07:55:22.741Z,80.37
2024-01-16T07:57:52.048Z,80.39
2024-01-16T08:00:19.821Z,80.43
2024-01-16T08:02:47.580Z,80.32
2024-01-16T08:05:15.332Z,80.24
2024-01-16T08:07:43.116Z,79.76
2024-01-16T08:10:11.017Z,79.68
2024-01-16T08:12:38.805Z,79.77
2024-01-16T08:15:08.674Z,79.86
2024-01-16T08:17:36.457Z,80.01
2024-01-16T08:20:04.689Z,80.24
2024-01-16T08:22:32.456Z,80.36
2024-01-16T08:25:00.480Z,80.84
2024-01-16T08:27:29.951Z,81.01
2024-01-16T08:29:57.530Z,81.39
2024-01-16T08:32:25.213Z,81.70
2024-01-16T08:34:53.024Z,81.99
2024-01-16T08:37:20.801Z,82.22
2024-01-16T08:39:49.261Z,82.46
2024-01-16T08:42:17.294Z,82.59
2024-01-16T08:44:44.865Z,82.55
2024-01-16T08:47:12.548Z,82.15
2024-01-16T08:49:41.187Z,81.90
2024-01-16T08:52:08.917Z,81.86
2024-01-16T08:54:36.429Z,81.83
2024-01-16T08:57:04.118Z,81.70
2024-01-16T08:59:33.658Z,81.58
2024-01-16T09:02:01.618Z,81.47
2024-01-16T09:04:29.236Z,81.24
2024-01-16T09:06:57.331Z,81.11
2024-01-16T09:09:25.060Z,80.86
2024-01-16T09:11:53.114Z,80.37
2024-01-16T09:14:21.613Z,79.81
2024-01-16T09:16:49.572Z,79.46
2024-01-16T09:19:17.686Z,79.35
2024-01-16T09:21:45.397Z,78.86
2024-01-16T09:24:13.775Z,78.43
2024-01-16T09:26:41.583Z,78.45
2024-01-16T09:29:10.173Z,78.50
2024-01-16T09:31:37.953Z,78.03
2024-01-16T09:34:09.557Z,78.30
2024-01-16T09:36:38.646Z,77.91
2024-01-16T09:39:09.160Z,77.77
2024-01-16T09:41:37.055Z,77.73
2024-01-16T09:44:04.683Z,77.60
2024-01-16T09:46:32.539Z,77.60
2024-01-16T09:49:00.595Z,77.58
2024-01-16T09:51:28.504Z,77.68
2024-01-16T09:53:56.130Z,77.51
2024-01-16T09:56:28.495Z,77.31
2024-01-16T09:58:56.920Z,77.34
2024-01-16T10:01:24.610Z,77.20
2024-01-16T10:03:54.049Z,77.28
2024-01-16T10:06:22.143Z,77.44
2024-01-16T10:08:49.868Z,77.57
2024-01-16T10:11:17.478Z,77.63
2024-01-16T10:13:45.085Z,77.21
2024-01-16T10:16:12.768Z,76.89
2024-01-16T10:18:40.487Z,77.23
2024-01-16T10:21:08.914Z,77.66
2024-01-16T10:23:38.101Z,78.02
2024-01-16T10:26:05.771Z,78.05
2024-01-16T10:28:35.567Z,78.05
2024-01-16T10:31:03.576Z,77.86
2024-01-16T10:33:32.858Z,77.53
2024-01-16T10:36:01.192Z,77.36
2024-01-16T10:38:28.939Z,76.90
2024-01-16T10:40:56.841Z,76.58
2024-01-16T10:43:24.736Z,76.27
2024-01-16T10:45:52.286Z,76.29
2024-01-16T10:48:19.974Z,75.87
2024-01-16T10:50:47.782Z,76.12
2024-01-16T10:53:17.368Z,76.31
2024-01-16T10:55:45.685Z,76.14
2024-01-16T10:58:14.071Z,75.77
2024-01-16T11:00:41.890Z,76.13
2024-01-16T11:03:09.630Z,75.96
2024-01-16T11:05:37.358Z,75.90
2024-01-16T11:08:05.208Z,75.65
2024-01-16T11:10:33.023Z,75.45
2024-01-16T11:13:00.980Z,74.80
2024-01-16T11:15:29.778Z,74.34
2024-01-16T11:17:57.825Z,74.44
2024-01-16T11:20:41.300Z,74.49
2024-01-16T11:23:14.139Z,74.16
2024-01-16T11:25:41.917Z,73.79
2024-01-16T11:28:09.439Z,73.42
2024-01-16T11:30:37.066Z,73.83
2024-01-16T11:33:06.340Z,73.86
2024-01-16T11:35:35.126Z,73.89
2024-01-16T11:38:02.743Z,73.37
2024-01-16T11:40:30.559Z,73.02
2024-01-16T11:42:58.122Z,72.82
2024-01-16T11:45:26.714Z,72.69
2024-01-16T11:47:54.570Z,72.58
2024-01-16T11:50:24.199Z,73.07
2024-01-16T11:52:51.919Z,73.92
2024-01-16T11:55:19.557Z,74.58
2024-01-16T11:57:48.411Z,75.36
2024-01-16T12:00:16.821Z,76.02
2024-01-16T12:02:44.640Z,76.14
2024-01-16T12:05:12.556Z,76.20
2024-01-16T12:07:41.338Z,76.01
2024-01-16T12:10:10.724Z,76.06
2024-01-16T12:12:38.348Z,75.87
2024-01-16T12:15:06.019Z,75.90
2024-01-16T12:17:33.809Z,75.71
2024-01-16T12:20:01.600Z,75.55
2024-01-16T12:22:29.684Z,75.52
2024-01-16T12:24:57.894Z,75.63
2024-01-16T12:27:26.243Z,75.42
2024-01-16T12:29:53.956Z,75.44
2024-01-16T12:32:23.409Z,75.35
2024-01-16T12:34:51.350Z,75.93
2024-01-16T12:37:18.985Z,76.62
2024-01-16T12:39:46.753Z,77.42
2024-01-16T12:42:14.496Z,78.39
2024-01-16T12:44:42.279Z,78.71
2024-01-16T12:47:11.140Z,78.71
2024-01-16T12:49:39.945Z,78.56
2024-01-16T12:52:07.540Z,78.22
2024-01-16T12:54:35.324Z,78.45
2024-01-16T12:57:03.020Z,78.67
2024-01-16T12:59:33.423Z,78.27
2024-01-16T13:02:01.792Z,77.85
2024-01-16T13:04:29.486Z,77.70
2024-01-16T13:06:57.318Z,77.44
2024-01-16T13:09:25.272Z,76.72
2024-01-16T13:11:53.463Z,76.52
2024-01-16T13:14:24.858Z,76.29
2024-01-16T13:16:53.024Z,76.30
2024-01-16T13:19:21.199Z,76.32
2024-01-16T13:21:49.175Z,76.10
2024-01-16T13:24:18.766Z,75.90
2024-01-16T13:26:46.554Z,75.99
2024-01-16T13:29:14.391Z,76.01
2024-01-16T13:31:42.140Z,76.14
2024-01-16T13:34:10.281Z,76.06
2024-01-16T13:39:14.483Z,75.60
2024-01-16T13:41:42.352Z,75.34
2024-01-16T13:44:10.075Z,75.22
2024-01-16T13:46:53.003Z,75.07
2024-01-16T13:49:26.848Z,74.86
2024-01-16T13:51:54.779Z,74.69
2024-01-16T13:54:22.346Z,74.17
2024-01-16T14:00:23.189Z,73.73
2024-01-16T14:02:51.939Z,73.21
2024-01-16T14:05:19.945Z,72.99
2024-01-16T14:07:47.869Z,72.71
2024-01-16T14:10:15.771Z,72.29
2024-01-16T14:12:46.362Z,71.99
2024-01-16T14:15:17.760Z,71.94
2024-01-16T14:17:45.607Z,72.35
2024-01-16T14:20:13.658Z,72.47
2024-01-16T14:22:41.589Z,72.46
2024-01-16T14:25:12.254Z,72.57
2024-01-16T14:27:40.590Z,72.65
2024-01-16T14:30:09.053Z,72.73
2024-01-16T14:32:36.971Z,72.66
2024-01-16T14:35:05.935Z,72.58
2024-01-16T14:37:33.674Z,72.52
2024-01-16T14:40:02.470Z,72.47
2024-01-16T14:42:30.129Z,72.63
2024-01-16T14:44:57.852Z,72.51
2024-01-16T14:47:25.902Z,72.49
2024-01-16T14:49:56.160Z,72.38
2024-01-16T14:52:26.280Z,72.39
2024-01-16T14:54:53.983Z,72.47
2024-01-16T14:57:21.829Z,72.65
2024-01-16T14:59:49.748Z,72.82
2024-01-16T15:02:17.849Z,72.95
2024-01-16T15:04:47.349Z,72.73
2024-01-16T15:07:15.425Z,72.80
2024-01-16T15:09:43.191Z,72.87
2024-01-16T15:12:11.017Z,73.05
2024-01-16T15:14:38.885Z,73.31
2024-01-16T15:17:08.488Z,73.49
2024-01-16T15:19:36.493Z,73.88
2024-01-16T15:22:04.362Z,74.63
2024-01-16T15:24:32.131Z,75.15
2024-01-16T15:26:59.932Z,75.38
2024-01-16T15:29:27.876Z,75.53
2024-01-16T15:31:55.716Z,75.70
2024-01-16T15:34:23.575Z,75.84
2024-01-16T15:36:51.416Z,75.83
2024-01-16T15:39:20.014Z,75.84
2024-01-16T15:41:47.820Z,75.79
2024-01-16T15:44:15.794Z,75.70
2024-01-16T15:46:43.553Z,75.71
2024-01-16T15:49:11.262Z,75.79
2024-01-16T15:51:42.473Z,75.77
2024-01-16T15:54:10.390Z,75.78
2024-01-16T15:56:38.228Z,75.79
2024-01-16T15:59:06.285Z,75.89
2024-01-16T16:01:34.258Z,76.00
2024-01-16T16:04:01.933Z,76.20
2024-01-16T16:06:29.929Z,76.40
2024-01-16T16:08:57.849Z,76.66
2024-01-16T16:11:25.718Z,76.78
2024-01-16T16:13:53.984Z,76.85
2024-01-16T16:16:21.901Z,77.01
2024-01-16T16:18:49.735Z,77.34
2024-01-16T16:21:17.758Z,77.51
2024-01-16T16:23:46.506Z,77.49
2024-01-16T16:26:14.163Z,77.68
2024-01-16T16:28:42.187Z,77.84
2024-01-16T16:31:11.333Z,77.84
2024-01-16T16:33:39.136Z,78.10
2024-01-16T16:36:07.062Z,78.15
2024-01-16T16:38:34.986Z,78.33
2024-01-16T16:41:03.299Z,78.37
2024-01-16T16:43:31.001Z,78.53
2024-01-16T16:45:59.947Z,78.67
2024-01-16T16:48:27.786Z,78.81
2024-01-16T16:50:55.629Z,78.94
2024-01-16T16:53:25.164Z,79.09
2024-01-16T16:55:54.317Z,79.19
2024-01-16T16:58:22.083Z,79.22
2024-01-16T17:00:50.917Z,79.19
2024-01-16T17:03:18.636Z,79.36
2024-01-16T17:05:46.657Z,79.30
2024-01-16T17:08:14.552Z,79.31
2024-01-16T17:10:43.168Z,79.31
2024-01-16T17:13:11.023Z,79.77
2024-01-16T17:15:38.761Z,80.21
2024-01-16T17:18:07.970Z,80.33
2024-01-16T17:20:35.814Z,80.27
2024-01-16T17:23:03.606Z,80.32
2024-01-16T17:25:31.263Z,80.26
2024-01-16T17:27:59.648Z,80.15
2024-01-16T17:30:27.353Z,80.03
2024-01-16T17:32:55.249Z,80.00
2024-01-16T17:35:25.244Z,79.88
2024-01-16T17:37:53.076Z,79.71
2024-01-16T17:40:20.747Z,79.45
2024-01-16T17:42:49.093Z,79.32
2024-01-16T17:45:16.850Z,78.85
2024-01-16T17:47:44.660Z,78.19
2024-01-16T17:50:13.320Z,78.07
2024-01-16T17:52:40.943Z,77.74
2024-01-16T17:55:10.056Z,77.34
2024-01-16T17:57:37.762Z,77.06
2024-01-16T18:00:07.023Z,76.94
2024-01-16T18:02:34.864Z,76.58
2024-01-16T18:05:11.522Z,76.53
2024-01-16T18:07:39.615Z,76.38
2024-01-16T18:10:10.406Z,75.81
2024-01-16T18:12:38.202Z,75.71
2024-01-16T18:15:06.245Z,75.54
2024-01-16T18:17:33.963Z,75.40
2024-01-16T18:20:01.837Z,76.63
2024-01-16T18:22:29.508Z,74.88
2024-01-16T18:24:57.157Z,74.63
2024-01-16T18:27:24.835Z,74.61
2024-01-16T18:29:52.551Z,74.69
2024-01-16T18:32:20.445Z,74.52
2024-01-16T18:34:48.537Z,74.25
2024-01-16T18:37:17.671Z,74.18
2024-01-16T18:39:45.385Z,74.52
2024-01-16T18:42:13.208Z,74.61
2024-01-16T18:44:40.944Z,74.33
2024-01-16T18:47:08.531Z,74.05
2024-01-16T18:49:36.491Z,74.03
2024-01-16T18:52:07.175Z,74.12
2024-01-16T18:54:35.645Z,74.28
2024-01-16T18:57:04.051Z,74.35
2024-01-16T18:59:32.063Z,73.97
2024-01-16T19:02:00.072Z,73.84
2024-01-16T19:04:30.685Z,73.70
2024-01-16T19:07:01.182Z,73.76
2024-01-16T19:09:38.080Z,74.02
2024-01-16T19:12:07.135Z,74.44
2024-01-16T19:14:35.034Z,73.96
2024-01-16T19:17:02.826Z,73.99
2024-01-16T19:19:30.565Z,74.05
2024-01-16T19:21:59.632Z,73.95
2024-01-16T19:24:28.340Z,73.99
2024-01-16T19:26:58.829Z,74.01
2024-01-16T19:29:26.995Z,73.99
2024-01-16T19:31:54.639Z,73.98
2024-01-16T19:34:22.303Z,74.07
2024-01-16T19:36:51.108Z,74.17
2024-01-16T19:39:22.378Z,74.35
2024-01-16T19:41:50.170Z,74.30
2024-01-16T19:44:18.124Z,74.36
2024-01-16T19:46:46.582Z,74.51
2024-01-16T19:49:14.752Z,74.62
2024-01-16T19:51:42.615Z,74.80
2024-01-16T19:54:10.501Z,74.73
2024-01-16T19:56:41.381Z,74.72
2024-01-16T19:59:12.656Z,74.73
2024-01-16T20:01:40.836Z,74.60
2024-01-16T20:04:08.509Z,74.64
2024-01-16T20:06:37.919Z,74.75
2024-01-16T20:09:07.375Z,74.84
2024-01-16T20:11:35.427Z,74.88
2024-01-16T20:14:03.427Z,74.92
2024-01-16T20:16:31.220Z,75.07
2024-01-16T20:18:59.067Z,75.15
2024-01-16T20:21:30.032Z,75.25
2024-01-16T20:23:58.016Z,75.44
2024-01-16T20:26:27.101Z,75.55
2024-01-16T20:28:55.253Z,75.39
2024-01-16T20:31:23.381Z,75.52
2024-01-16T20:33:51.364Z,75.66
2024-01-16T20:36:19.365Z,75.70
2024-01-16T20:38:48.697Z,75.70
2024-01-16T20:41:16.881Z,75.71
2024-01-16T20:43:45.298Z,75.96
2024-01-16T20:46:13.119Z,75.89
2024-01-16T20:48:41.447Z,76.15
2024-01-16T20:51:13.244Z,75.87
2024-01-16T20:53:40.989Z,75.85
2024-01-16T20:56:08.622Z,75.85
2024-01-16T20:58:37.022Z,75.74
2024-01-16T21:01:04.937Z,75.98
2024-01-16T21:03:33.218Z,76.24
2024-01-16T21:06:03.402Z,76.19
2024-01-16T21:08:32.490Z,76.17
2024-01-16T21:11:00.533Z,76.09
2024-01-16T21:13:29.229Z,76.28
2024-01-16T21:15:57.953Z,76.55
2024-01-16T21:18:31.040Z,76.83
2024-01-16T21:20:59.938Z,76.90
2024-01-16T21:23:27.642Z,76.91
2024-01-16T21:25:55.521Z,77.33
2024-01-16T21:28:24.570Z,76.99
2024-01-16T21:30:55.799Z,77.31
2024-01-16T21:33:23.784Z,77.25
2024-01-16T21:35:53.108Z,77.53
2024-01-16T21:38:21.048Z,77.07
2024-01-16T21:40:49.392Z,76.92
2024-01-16T21:43:17.161Z,77.19
2024-01-16T21:45:45.020Z,77.05
2024-01-16T21:48:12.748Z,77.01
2024-01-16T21:50:40.783Z,76.69
2024-01-16T21:53:08.645Z,76.71
2024-01-16T21:55:36.440Z,76.67
2024-01-16T21:58:04.385Z,76.92
2024-01-16T22:00:32.652Z,77.63
2024-01-16T22:03:00.986Z,78.10
2024-01-16T22:05:29.273Z,77.17
2024-01-16T22:07:57.069Z,76.99
2024-01-16T22:10:24.833Z,77.09
2024-01-16T22:12:52.500Z,77.33
2024-01-16T22:15:20.069Z,76.78
2024-01-16T22:17:48.724Z,76.41
2024-01-16T22:20:17.724Z,77.19
2024-01-16T22:22:45.426Z,77.72
2024-01-16T22:25:13.630Z,77.52
2024-01-16T22:27:41.250Z,77.47
2024-01-16T22:30:09.403Z,77.40
2024-01-16T22:32:37.240Z,77.18
2024-01-16T22:35:05.070Z,77.11
2024-01-16T22:37:33.273Z,77.20
2024-01-16T22:40:01.449Z,77.22
2024-01-16T22:42:29.264Z,77.55
2024-01-16T22:44:57.262Z,77.90
2024-01-16T22:47:25.241Z,77.96
2024-01-16T22:49:53.124Z,77.92
2024-01-16T22:52:20.852Z,78.42
2024-01-16T22:54:48.430Z,78.22
2024-01-16T22:57:16.173Z,78.17
2024-01-16T22:59:43.902Z,78.27
2024-01-16T23:02:11.986Z,78.14
2024-01-16T23:04:40.109Z,78.11
2024-01-16T23:07:08.550Z,78.18
2024-01-16T23:09:36.306Z,78.45
2024-01-16T23:12:04.091Z,78.23
2024-01-16T23:14:32.307Z,78.19
2024-01-16T23:16:59.905Z,78.21
2024-01-16T23:19:27.813Z,77.90
2024-01-16T23:21:55.781Z,78.02
2024-01-16T23:24:23.398Z,78.20
2024-01-16T23:26:51.161Z,78.00
2024-01-16T23:29:18.811Z,78.07
2024-01-16T23:31:46.681Z,78.19
2024-01-16T23:34:14.550Z,78.91
2024-01-16T23:36:42.122Z,78.97
2024-01-16T23:39:12.081Z,79.51
2024-01-16T23:41:40.156Z,79.23
2024-01-16T23:44:09.557Z,78.99
2024-01-16T23:46:40.108Z,79.17
2024-01-16T23:49:07.932Z,78.68
2024-01-16T23:51:36.861Z,78.90
2024-01-16T23:54:04.531Z,79.65
2024-01-16T23:56:32.425Z,79.51
2024-01-16T23:59:00.853Z,79.36
